createdAt,value
2022-08-07T00:00:52.305Z,100507.56
2022-08-07T00:03:55.178Z,100503.72
2022-08-07T00:06:57.139Z,100516.69
2022-08-07T00:10:26.311Z,100503.12
2022-08-07T00:13:26.880Z,100509.03
2022-08-07T00:16:29.053Z,100515.00
2022-08-07T00:19:59.649Z,100509.91
2022-08-07T00:22:53.310Z,100514.72
2022-08-07T00:26:00.294Z,100515.56
2022-08-07T00:29:03.604Z,100506.69
2022-08-07T00:32:08.011Z,100513.31
2022-08-07T00:35:10.111Z,100504.75
2022-08-07T00:38:13.095Z,100509.66
2022-08-07T00:41:15.289Z,100509.62
2022-08-07T00:44:17.305Z,100511.75
2022-08-07T00:48:08.157Z,100511.34
2022-08-07T00:50:43.731Z,100496.97
2022-08-07T00:53:54.992Z,100507.81
2022-08-07T00:56:57.230Z,100501.19
2022-08-07T01:00:00.168Z,100498.75
2022-08-07T01:03:02.058Z,100498.66
2022-08-07T01:06:03.877Z,100500.06
2022-08-07T01:09:05.794Z,100498.88
2022-08-07T01:12:29.923Z,100499.31
2022-08-07T01:15:35.782Z,100500.88
2022-08-07T01:18:53.322Z,100507.34
2022-08-07T01:21:56.617Z,100504.28
2022-08-07T01:24:58.641Z,100507.06
2022-08-07T01:28:00.490Z,100502.25
2022-08-07T01:31:02.856Z,100500.78
2022-08-07T01:34:05.902Z,100499.03
2022-08-07T01:37:09.912Z,100488.19
2022-08-07T01:40:14.857Z,100500.59
2022-08-07T01:43:17.437Z,100495.81
2022-08-07T01:46:21.485Z,100502.16
2022-08-07T01:49:23.366Z,100496.22
2022-08-07T01:52:25.457Z,100500.72
2022-08-07T01:55:29.153Z,100495.25
2022-08-07T01:58:33.345Z,100498.91
2022-08-07T02:02:01.629Z,100509.59
2022-08-07T02:05:06.450Z,100502.25
2022-08-07T02:08:09.815Z,100491.37
2022-08-07T02:11:30.728Z,100502.03
2022-08-07T02:14:40.862Z,100507.09
2022-08-07T02:17:49.576Z,100514.34
2022-08-07T02:20:55.959Z,100509.22
2022-08-07T02:23:59.341Z,100511.06
2022-08-07T02:27:03.816Z,100515.16
2022-08-07T02:30:07.124Z,100514.59
2022-08-07T02:33:10.692Z,100506.13
2022-08-07T02:36:30.136Z,100517.44
2022-08-07T02:39:43.383Z,100527.00
2022-08-07T02:42:46.262Z,100520.94
2022-08-07T02:45:59.177Z,100521.91
2022-08-07T02:49:04.342Z,100528.87
2022-08-07T02:52:09.573Z,100524.41
2022-08-07T02:55:28.669Z,100519.16
2022-08-07T02:58:39.806Z,100525.69
2022-08-07T03:01:52.130Z,100530.94
2022-08-07T03:04:56.928Z,100530.66
2022-08-07T03:08:07.151Z,100524.50
2022-08-07T03:11:12.301Z,100529.44
2022-08-07T03:14:14.254Z,100530.78
2022-08-07T03:17:16.913Z,100532.75
2022-08-07T03:20:18.835Z,100523.34
2022-08-07T03:23:22.003Z,100532.25
2022-08-07T03:26:36.128Z,100539.88
2022-08-07T03:29:53.492Z,100532.66
2022-08-07T03:32:58.612Z,100550.62
2022-08-07T03:36:01.136Z,100542.94
2022-08-07T03:39:08.964Z,100537.53
2022-08-07T03:42:11.526Z,100543.13
2022-08-07T03:45:29.953Z,100548.09
2022-08-07T03:48:45.400Z,100539.69
2022-08-07T03:52:01.969Z,100551.47
2022-08-07T03:55:06.812Z,100547.34
2022-08-07T03:59:06.670Z,100541.50
2022-08-07T04:01:32.202Z,100559.69
2022-08-07T04:04:34.650Z,100577.81
2022-08-07T04:07:45.139Z,100563.34
2022-08-07T04:10:54.129Z,100554.25
2022-08-07T04:14:37.473Z,100567.72
2022-08-07T04:18:30.979Z,100578.94
2022-08-07T04:20:55.199Z,100581.28
2022-08-07T04:24:01.991Z,100588.25
2022-08-07T04:27:20.751Z,100590.66
2022-08-07T04:30:43.437Z,100573.72
2022-08-07T04:33:56.585Z,100587.31
2022-08-07T04:37:02.846Z,100597.50
2022-08-07T04:40:10.117Z,100593.94
2022-08-07T04:43:14.920Z,100598.25
2022-08-07T04:46:59.594Z,100593.13
2022-08-07T04:50:07.646Z,100599.84
2022-08-07T04:53:27.714Z,100602.31
2022-08-07T04:58:09.900Z,100596.69
2022-08-07T05:00:33.031Z,100599.37
2022-08-07T05:04:06.453Z,100607.44
2022-08-07T05:07:19.567Z,100603.88
2022-08-07T05:10:42.236Z,100600.75
2022-08-07T05:14:55.794Z,100613.94
2022-08-07T05:17:12.007Z,100623.03
2022-08-07T05:20:18.215Z,100627.09
2022-08-07T05:23:29.015Z,100637.63
2022-08-07T05:26:33.143Z,100619.28
2022-08-07T05:29:51.058Z,100613.37
2022-08-07T05:32:55.657Z,100614.97
2022-08-07T05:35:59.695Z,100625.72
2022-08-07T05:40:05.841Z,100617.75
2022-08-07T05:42:34.332Z,100633.25
2022-08-07T05:45:46.466Z,100629.19
2022-08-07T05:48:58.220Z,100640.63
2022-08-07T05:52:01.862Z,100632.28
2022-08-07T05:55:10.884Z,100639.22
2022-08-07T05:58:13.477Z,100648.22
2022-08-07T06:01:15.688Z,100648.53
2022-08-07T06:04:18.428Z,100645.53
2022-08-07T06:07:22.892Z,100637.41
2022-08-07T06:10:43.850Z,100636.94
2022-08-07T06:14:12.212Z,100628.75
2022-08-07T06:17:08.790Z,100628.59
2022-08-07T06:20:12.858Z,100637.09
2022-08-07T06:24:36.943Z,100635.06
2022-08-07T06:26:50.807Z,100647.88
2022-08-07T06:29:52.923Z,100652.19
2022-08-07T06:32:54.913Z,100648.50
2022-08-07T06:36:06.385Z,100657.47
2022-08-07T06:40:15.816Z,100663.97
2022-08-07T06:42:37.576Z,100663.94
2022-08-07T06:45:39.560Z,100650.34
2022-08-07T06:48:46.546Z,100668.22
2022-08-07T06:51:50.148Z,100670.25
2022-08-07T06:55:31.841Z,100673.16
2022-08-07T06:58:14.079Z,100670.84
2022-08-07T07:01:18.556Z,100673.44
2022-08-07T07:04:28.098Z,100666.69
2022-08-07T07:07:59.379Z,100670.53
2022-08-07T07:10:57.862Z,100675.88
2022-08-07T07:14:02.216Z,100676.38
2022-08-07T07:17:06.914Z,100676.56
2022-08-07T07:20:18.808Z,100672.53
2022-08-07T07:24:06.389Z,100674.78
2022-08-07T07:26:51.906Z,100668.72
2022-08-07T07:30:07.485Z,100678.66
2022-08-07T07:33:12.353Z,100667.31
2022-08-07T07:36:17.176Z,100671.59
2022-08-07T07:39:20.213Z,100661.41
2022-08-07T07:42:25.740Z,100667.63
2022-08-07T07:46:39.998Z,100662.53
2022-08-07T07:49:00.008Z,100665.66
2022-08-07T07:52:02.737Z,100653.59
2022-08-07T07:55:05.645Z,100665.25
2022-08-07T07:58:07.591Z,100644.37
2022-08-07T08:02:02.855Z,100660.37
2022-08-07T08:04:34.229Z,100661.00
2022-08-07T08:07:51.452Z,100668.06
2022-08-07T08:10:59.603Z,100660.72
2022-08-07T08:14:01.575Z,100672.84
2022-08-07T08:17:56.615Z,100672.53
2022-08-07T08:20:32.355Z,100664.63
2022-08-07T08:23:52.967Z,100666.88
2022-08-07T08:27:05.926Z,100650.37
2022-08-07T08:30:14.330Z,100662.31
2022-08-07T08:33:21.991Z,100665.59
2022-08-07T08:36:25.611Z,100666.12
2022-08-07T08:39:38.973Z,100668.88
2022-08-07T08:42:53.208Z,100668.91
2022-08-07T08:46:15.625Z,100662.81
2022-08-07T08:49:33.678Z,100678.47
2022-08-07T08:52:53.850Z,100672.53
2022-08-07T08:56:00.990Z,100674.09
2022-08-07T08:59:06.636Z,100659.62
2022-08-07T09:02:36.609Z,100664.56
2022-08-07T09:05:52.222Z,100656.88
2022-08-07T09:09:01.614Z,100655.72
2022-08-07T09:12:33.067Z,100663.13
2022-08-07T09:16:25.928Z,100670.03
2022-08-07T09:19:51.533Z,100651.72
2022-08-07T09:24:52.405Z,100664.25
2022-08-07T09:26:24.118Z,100654.78
2022-08-07T09:30:04.373Z,100657.00
2022-08-07T09:33:05.469Z,100653.75
2022-08-07T09:36:35.853Z,100658.19
2022-08-07T09:40:08.694Z,100640.66
2022-08-07T09:43:40.253Z,100652.22
2022-08-07T09:47:49.844Z,100642.94
2022-08-07T09:50:19.482Z,100641.66
2022-08-07T09:53:22.598Z,100650.87
2022-08-07T09:56:42.933Z,100649.84
2022-08-07T10:00:00.755Z,100634.50
2022-08-07T10:03:08.467Z,100624.00
2022-08-07T10:06:35.642Z,100629.91
2022-08-07T10:10:00.935Z,100616.66
2022-08-07T10:13:55.305Z,100613.66
2022-08-07T10:17:01.135Z,100609.31
2022-08-07T10:20:30.319Z,100608.69
2022-08-07T10:24:06.409Z,100612.00
2022-08-07T10:27:06.693Z,100601.81
2022-08-07T10:30:19.618Z,100591.91
2022-08-07T10:34:04.913Z,100592.84
2022-08-07T10:37:12.757Z,100602.63
2022-08-07T10:40:17.347Z,100602.59
2022-08-07T10:43:34.159Z,100589.94
2022-08-07T10:46:41.173Z,100592.87
2022-08-07T10:49:55.592Z,100590.41
2022-08-07T10:53:08.356Z,100576.63
2022-08-07T10:56:31.612Z,100576.34
2022-08-07T10:59:38.282Z,100571.66
2022-08-07T11:02:42.596Z,100570.88
2022-08-07T11:05:56.297Z,100564.75
2022-08-07T11:09:03.801Z,100556.78
2022-08-07T11:12:32.196Z,100556.09
2022-08-07T11:15:36.376Z,100561.50
2022-08-07T11:18:43.927Z,100555.97
2022-08-07T11:21:53.157Z,100550.00
2022-08-07T11:25:14.836Z,100553.47
2022-08-07T11:28:27.885Z,100540.47
2022-08-07T11:31:51.818Z,100543.88
2022-08-07T11:34:55.253Z,100535.66
2022-08-07T11:38:17.658Z,100531.22
2022-08-07T11:41:31.064Z,100532.91
2022-08-07T11:44:52.151Z,100529.75
2022-08-07T11:48:29.605Z,100524.47
2022-08-07T11:51:41.644Z,100527.41
2022-08-07T11:55:18.569Z,100526.56
2022-08-07T11:58:33.838Z,100521.13
2022-08-07T12:01:59.034Z,100502.84
2022-08-07T12:05:15.218Z,100507.16
2022-08-07T12:08:35.071Z,100498.16
2022-08-07T12:12:09.219Z,100501.13
2022-08-07T12:15:17.267Z,100489.84
2022-08-07T12:18:45.195Z,100494.37
2022-08-07T12:22:39.125Z,100489.47
2022-08-07T12:26:05.529Z,100496.97
2022-08-07T12:29:37.826Z,100485.53
2022-08-07T12:32:50.781Z,100485.66
2022-08-07T12:35:57.716Z,100491.81
2022-08-07T12:39:01.860Z,100478.50
2022-08-07T12:42:04.155Z,100488.37
2022-08-07T12:45:13.845Z,100482.62
2022-08-07T12:48:28.411Z,100475.88
2022-08-07T12:51:51.013Z,100474.94
2022-08-07T12:55:09.715Z,100474.06
2022-08-07T12:58:18.492Z,100472.00
2022-08-07T13:01:28.041Z,100459.44
2022-08-07T13:04:44.140Z,100466.84
2022-08-07T13:08:18.952Z,100455.38
2022-08-07T13:11:21.245Z,100453.53
2022-08-07T13:14:50.989Z,100466.50
2022-08-07T13:18:08.699Z,100453.19
2022-08-07T13:21:23.597Z,100458.06
2022-08-07T13:24:53.858Z,100460.53
2022-08-07T13:28:13.765Z,100455.22
2022-08-07T13:31:24.834Z,100456.38
2022-08-07T13:34:44.867Z,100454.00
2022-08-07T13:38:09.546Z,100446.44
2022-08-07T13:41:11.451Z,100438.25
2022-08-07T13:44:13.420Z,100430.91
2022-08-07T13:47:15.905Z,100435.62
2022-08-07T13:50:44.160Z,100442.66
2022-08-07T13:53:59.299Z,100433.22
2022-08-07T13:57:07.031Z,100432.66
2022-08-07T14:00:13.370Z,100417.19
2022-08-07T14:03:30.055Z,100413.91
2022-08-07T14:06:50.486Z,100411.25
2022-08-07T14:10:12.007Z,100406.94
2022-08-07T14:13:16.450Z,100401.78
2022-08-07T14:16:19.491Z,100408.41
2022-08-07T14:20:42.448Z,100398.38
2022-08-07T14:22:59.135Z,100400.41
2022-08-07T14:26:28.020Z,100407.44
2022-08-07T14:32:58.292Z,100401.44
2022-08-07T14:36:00.327Z,100404.41
2022-08-07T14:39:04.569Z,100395.84
2022-08-07T14:42:18.542Z,100397.91
2022-08-07T14:45:47.154Z,100388.34
2022-08-07T14:48:48.903Z,100384.03
2022-08-07T14:55:17.730Z,100381.72
2022-08-07T15:05:20.355Z,100371.59
2022-08-07T15:08:54.689Z,100371.94
2022-08-07T15:15:39.074Z,100358.69
2022-08-07T15:18:43.715Z,100363.00
2022-08-07T15:22:04.159Z,100362.19
2022-08-07T15:25:16.987Z,100358.25
2022-08-07T15:28:34.652Z,100358.28
2022-08-07T15:31:57.960Z,100347.56
2022-08-07T15:35:06.469Z,100355.53
2022-08-07T15:42:44.484Z,100343.97
2022-08-07T15:44:53.064Z,100338.19
2022-08-07T15:48:00.707Z,100349.97
2022-08-07T15:54:39.264Z,100332.66
2022-08-07T15:57:48.771Z,100343.56
2022-08-07T16:00:51.242Z,100337.69
2022-08-07T16:03:58.358Z,100333.13
2022-08-07T16:07:00.922Z,100331.56
2022-08-07T16:10:15.039Z,100336.69
2022-08-07T16:13:39.548Z,100337.84
2022-08-07T16:16:48.493Z,100335.19
2022-08-07T16:20:06.771Z,100340.62
2022-08-07T16:23:53.115Z,100323.75
2022-08-07T16:26:59.040Z,100333.28
2022-08-07T16:30:10.843Z,100339.78
2022-08-07T16:34:01.404Z,100326.84
2022-08-07T16:38:03.654Z,100338.72
2022-08-07T16:40:57.071Z,100340.25
2022-08-07T16:44:40.505Z,100327.00
2022-08-07T16:47:58.131Z,100338.47
2022-08-07T16:51:57.756Z,100341.94
2022-08-07T16:54:54.845Z,100329.50
2022-08-07T16:58:04.396Z,100340.34
2022-08-07T17:01:18.482Z,100333.84
2022-08-07T17:04:36.941Z,100339.03
2022-08-07T17:07:58.160Z,100341.25
2022-08-07T17:11:01.959Z,100347.00
2022-08-07T17:14:19.602Z,100348.06
2022-08-07T17:17:44.341Z,100344.34
2022-08-07T17:20:49.690Z,100343.72
2022-08-07T17:24:15.737Z,100352.47
2022-08-07T17:27:19.827Z,100350.06
2022-08-07T17:30:26.674Z,100347.06
2022-08-07T17:34:09.529Z,100351.06
2022-08-07T17:36:57.896Z,100345.56
2022-08-07T17:40:14.975Z,100358.94
2022-08-07T17:43:22.637Z,100352.87
2022-08-07T17:46:53.486Z,100355.59
2022-08-07T17:49:55.484Z,100365.28
2022-08-07T17:53:06.119Z,100357.41
2022-08-07T17:56:25.975Z,100363.16
2022-08-07T17:59:35.398Z,100365.09
2022-08-07T18:02:56.684Z,100370.75
2022-08-07T18:06:09.283Z,100378.75
2022-08-07T18:10:04.967Z,100392.41
2022-08-07T18:12:54.080Z,100382.19
2022-08-07T18:16:15.851Z,100396.87
2022-08-07T18:21:09.695Z,100403.25
2022-08-07T18:23:42.119Z,100401.12
2022-08-07T18:26:53.185Z,100417.34
2022-08-07T18:30:08.443Z,100417.16
2022-08-07T18:33:28.954Z,100417.06
2022-08-07T18:37:09.655Z,100424.97
2022-08-07T18:40:38.637Z,100420.47
2022-08-07T18:43:48.879Z,100433.25
2022-08-07T18:46:58.245Z,100426.38
2022-08-07T18:50:39.729Z,100437.69
2022-08-07T18:53:55.765Z,100443.59
2022-08-07T18:57:29.717Z,100440.50
2022-08-07T19:00:42.358Z,100437.37
2022-08-07T19:04:00.213Z,100451.56
2022-08-07T19:07:04.311Z,100448.06
2022-08-07T19:10:18.497Z,100455.91
2022-08-07T19:13:24.333Z,100457.75
2022-08-07T19:17:05.738Z,100461.53
2022-08-07T19:20:29.782Z,100462.97
2022-08-07T19:23:58.309Z,100469.56
2022-08-07T19:28:30.230Z,100472.47
2022-08-07T19:31:06.121Z,100472.00
2022-08-07T19:33:57.952Z,100489.03
2022-08-07T19:37:09.875Z,100491.25
2022-08-07T19:40:30.395Z,100498.03
2022-08-07T19:43:48.938Z,100498.06
2022-08-07T19:47:03.122Z,100510.78
2022-08-07T19:50:43.102Z,100498.88
2022-08-07T19:54:35.608Z,100521.34
2022-08-07T19:58:02.348Z,100507.66
2022-08-07T20:00:21.858Z,100518.19
2022-08-07T20:03:34.076Z,100511.84
2022-08-07T20:06:37.887Z,100530.94
2022-08-07T20:10:36.538Z,100530.47
2022-08-07T20:13:22.917Z,100524.38
2022-08-07T20:16:35.520Z,100528.25
2022-08-07T20:19:47.687Z,100522.47
2022-08-07T20:22:52.311Z,100532.81
2022-08-07T20:25:54.191Z,100543.28
2022-08-07T20:28:57.202Z,100537.03
2022-08-07T20:31:59.929Z,100552.91
2022-08-07T20:35:07.834Z,100548.34
2022-08-07T20:38:10.397Z,100537.84
2022-08-07T20:41:12.981Z,100542.31
2022-08-07T20:44:19.423Z,100550.09
2022-08-07T20:47:25.817Z,100540.06
2022-08-07T20:50:47.621Z,100537.72
2022-08-07T20:54:04.101Z,100556.81
2022-08-07T20:57:10.355Z,100550.03
2022-08-07T21:00:12.673Z,100560.97
2022-08-07T21:03:23.234Z,100550.47
2022-08-07T21:06:28.337Z,100546.84
2022-08-07T21:09:51.671Z,100555.06
2022-08-07T21:12:56.398Z,100557.62
2022-08-07T21:16:00.848Z,100564.25
2022-08-07T21:19:02.908Z,100574.69
2022-08-07T21:22:05.675Z,100570.31
2022-08-07T21:25:14.843Z,100568.72
2022-08-07T21:28:49.491Z,100585.25
2022-08-07T21:32:42.363Z,100583.03
2022-08-07T21:35:09.426Z,100590.09
2022-08-07T21:38:27.481Z,100594.22
2022-08-07T21:41:37.945Z,100600.25
2022-08-07T21:46:09.549Z,100595.59
2022-08-07T21:48:56.437Z,100594.19
2022-08-07T21:52:02.964Z,100601.22
2022-08-07T21:55:19.301Z,100599.25
2022-08-07T21:58:32.992Z,100594.34
2022-08-07T22:02:10.948Z,100604.38
2022-08-07T22:05:45.895Z,100609.31
2022-08-07T22:08:51.544Z,100605.63
2022-08-07T22:12:06.819Z,100613.63
2022-08-07T22:16:38.397Z,100613.78
2022-08-07T22:18:43.859Z,100611.31
2022-08-07T22:22:05.386Z,100608.31
2022-08-07T22:25:26.367Z,100599.63
2022-08-07T22:28:32.683Z,100600.09
2022-08-07T22:32:05.532Z,100606.09
2022-08-07T22:35:08.109Z,100608.00
2022-08-07T22:38:25.941Z,100601.88
2022-08-07T22:42:02.309Z,100616.25
2022-08-07T22:44:58.019Z,100615.03
2022-08-07T22:48:56.309Z,100611.66
2022-08-07T22:51:42.346Z,100615.63
2022-08-07T22:54:50.202Z,100601.06
2022-08-07T22:58:12.512Z,100622.12
2022-08-07T23:01:49.493Z,100621.84
2022-08-07T23:06:06.874Z,100629.66
2022-08-07T23:08:47.838Z,100632.28
2022-08-07T23:11:59.413Z,100635.59
2022-08-07T23:15:10.640Z,100630.78
2022-08-07T23:18:32.159Z,100642.78
2022-08-07T23:21:38.434Z,100638.38
2022-08-07T23:24:59.361Z,100637.63
2022-08-07T23:28:22.648Z,100634.38
2022-08-07T23:32:50.310Z,100641.47
2022-08-07T23:34:56.715Z,100646.28
2022-08-07T23:38:04.030Z,100642.66
2022-08-07T23:41:24.360Z,100635.81
2022-08-07T23:44:51.444Z,100632.34
2022-08-07T23:48:01.596Z,100620.37
2022-08-07T23:53:01.973Z,100629.38
2022-08-07T23:55:12.477Z,100618.25
2022-08-07T23:58:42.228Z,100637.69
